Time;durP1;ratioP1;P1;durP2;ratioP2;P2;SDS_P1;SDS_P2;PMS_P1;PMS_P2;Temp;Humidity;BMP_temperature;BMP_pressure;BME280_temperature;BME280_humidity;BME280_pressure;Samples;Min_cycle;Max_cycle;Signal;HPM_P1;HPM_P2
2022/01/28 07:24:56;;;;;;;;;31.00;23.33;;;;;;;;6253609;22;46549;-90
2022/01/28 07:27:22;;;;;;;;;25.33;23.00;;;;;;;;6243887;22;47102;-91
2022/01/28 07:29:50;;;;;;;;;28.00;22.33;;;;;;;;6245681;22;45351;-94
2022/01/28 07:32:15;;;;;;;;;28.00;24.00;;;;;;;;6242795;22;45534;-93
2022/01/28 07:34:40;;;;;;;;;32.75;29.50;;;;;;;;6241615;22;45468;-92
2022/01/28 07:37:06;;;;;;;;;27.33;24.33;;;;;;;;6242122;22;47323;-90
2022/01/28 07:39:31;;;;;;;;;25.00;22.67;;;;;;;;6268596;22;45365;-90
2022/01/28 07:41:56;;;;;;;;;28.33;24.33;;;;;;;;6241428;22;45278;-90
2022/01/28 07:44:21;;;;;;;;;24.33;19.33;;;;;;;;6241434;22;45219;-90
2022/01/28 07:46:46;;;;;;;;;36.33;27.00;;;;;;;;6268051;22;45377;-90
2022/01/28 07:49:12;;;;;;;;;32.00;21.67;;;;;;;;6240438;22;45693;-90
2022/01/28 07:51:37;;;;;;;;;27.33;25.00;;;;;;;;6241278;22;45247;-91
2022/01/28 07:54:03;;;;;;;;;25.67;23.33;;;;;;;;6269031;22;45362;-90
2022/01/28 07:56:28;;;;;;;;;33.33;27.67;;;;;;;;6240272;22;48031;-90
2022/01/28 07:58:53;;;;;;;;;37.67;26.00;;;;;;;;6268984;22;45215;-90
2022/01/28 08:01:19;;;;;;;;;31.67;27.00;;;;;;;;6242073;22;45595;-90
2022/01/28 08:03:44;;;;;;;;;31.33;23.00;;;;;;;;6271026;22;45693;-89
2022/01/28 08:06:09;;;;;;;;;36.33;28.00;;;;;;;;6244239;22;46008;-90
2022/01/28 08:08:34;;;;;;;;;32.33;25.67;;;;;;;;6241274;22;45320;-91
2022/01/28 08:10:59;;;;;;;;;32.00;24.33;;;;;;;;6270986;22;45271;-89
2022/01/28 08:13:24;;;;;;;;;20.33;17.00;;;;;;;;6246747;22;45330;-89
2022/01/28 08:15:50;;;;;;;;;30.75;26.00;;;;;;;;6244182;22;47428;-89
2022/01/28 08:18:15;;;;;;;;;30.00;24.33;;;;;;;;6272119;22;45418;-89
2022/01/28 08:20:40;;;;;;;;;26.00;24.00;;;;;;;;6242805;22;45335;-90
2022/01/28 08:23:06;;;;;;;;;28.33;22.33;;;;;;;;6243748;22;45290;-90
2022/01/28 08:25:33;;;;;;;;;30.00;25.33;;;;;;;;6242679;22;48365;-90
2022/01/28 08:27:59;;;;;;;;;37.67;24.33;;;;;;;;6243475;22;45227;-90
2022/01/28 08:30:25;;;;;;;;;38.33;30.00;;;;;;;;6241589;22;45362;-89
2022/01/28 08:32:50;;;;;;;;;28.33;23.67;;;;;;;;6268817;22;45226;-90
2022/01/28 08:35:17;;;;;;;;;28.67;20.67;;;;;;;;6239831;22;47305;-89
2022/01/28 08:37:43;;;;;;;;;23.00;16.33;;;;;;;;6242626;22;45693;-90
2022/01/28 08:40:09;;;;;;;;;34.67;26.67;;;;;;;;6269654;22;45596;-90
2022/01/28 08:42:35;;;;;;;;;29.33;22.33;;;;;;;;6271706;22;45373;-89
2022/01/28 08:45:00;;;;;;;;;26.33;20.00;;;;;;;;6266778;22;45866;-90
2022/01/28 08:47:25;;;;;;;;;29.67;23.00;;;;;;;;6267672;22;45392;-90
2022/01/28 08:49:50;;;;;;;;;36.67;25.00;;;;;;;;6245559;22;45433;-89
2022/01/28 08:52:16;;;;;;;;;25.00;22.33;;;;;;;;6275237;22;45373;-90
2022/01/28 08:54:41;;;;;;;;;29.00;23.33;;;;;;;;6242034;22;47224;-90
2022/01/28 08:57:06;;;;;;;;;35.33;26.00;;;;;;;;6241431;22;45995;-89
2022/01/28 08:59:32;;;;;;;;;24.33;21.33;;;;;;;;6241302;22;45376;-89
2022/01/28 09:01:57;;;;;;;;;33.67;22.67;;;;;;;;6270834;22;45395;-90
2022/01/28 09:04:22;;;;;;;;;24.00;20.67;;;;;;;;6245217;22;47066;-89
2022/01/28 09:06:47;;;;;;;;;25.33;24.67;;;;;;;;6273234;22;45352;-89
2022/01/28 09:09:13;;;;;;;;;27.67;24.33;;;;;;;;6249023;22;45302;-88
2022/01/28 09:11:48;;;;;;;;;31.33;23.67;;;;;;;;6266587;22;45664;-91
2022/01/28 09:14:14;;;;;;;;;28.67;24.67;;;;;;;;6242607;22;47179;-90
2022/01/28 09:16:40;;;;;;;;;25.33;22.33;;;;;;;;6243530;22;45190;-95
2022/01/28 09:19:05;;;;;;;;;25.67;21.33;;;;;;;;6244524;22;45255;-88
2022/01/28 09:21:31;;;;;;;;;23.33;20.33;;;;;;;;6269612;22;45341;-93
2022/01/28 09:23:56;;;;;;;;;27.00;23.00;;;;;;;;6241297;22;47850;-91
2022/01/28 09:26:22;;;;;;;;;28.33;21.00;;;;;;;;6272524;22;45180;-93
2022/01/28 09:28:47;;;;;;;;;25.67;20.00;;;;;;;;6249220;22;45251;-93
2022/01/28 09:31:12;;;;;;;;;25.67;18.33;;;;;;;;6249136;22;45557;-91
2022/01/28 09:33:38;;;;;;;;;26.33;18.67;;;;;;;;6243570;22;47849;-89
2022/01/28 09:36:04;;;;;;;;;28.00;24.67;;;;;;;;6238297;22;45291;-90
2022/01/28 09:38:29;;;;;;;;;22.33;20.67;;;;;;;;6270688;22;45959;-90
2022/01/28 09:40:56;;;;;;;;;25.00;19.00;;;;;;;;6270308;22;45351;-89
2022/01/28 09:43:23;;;;;;;;;25.67;20.67;;;;;;;;6242256;22;47902;-89
2022/01/28 09:45:48;;;;;;;;;24.00;18.00;;;;;;;;6240879;22;45688;-90
2022/01/28 09:48:14;;;;;;;;;23.67;21.00;;;;;;;;6244031;22;45322;-91
2022/01/28 09:50:39;;;;;;;;;27.00;20.33;;;;;;;;6273232;22;45590;-90
2022/01/28 09:53:04;;;;;;;;;27.33;18.00;;;;;;;;6242433;22;47271;-89
2022/01/28 09:55:30;;;;;;;;;30.67;22.33;;;;;;;;6242102;22;45346;-90
2022/01/28 09:57:57;;;;;;;;;27.67;23.00;;;;;;;;6270926;22;45367;-90
2022/01/28 10:00:25;;;;;;;;;30.00;23.67;;;;;;;;6270825;22;45306;-90
2022/01/28 10:03:01;;;;;;;;;25.67;23.00;;;;;;;;6242179;22;48235;-91
2022/01/28 10:05:31;;;;;;;;;24.33;20.00;;;;;;;;6241303;22;45454;-90
2022/01/28 10:08:02;;;;;;;;;31.33;27.67;;;;;;;;6241576;22;45432;-91
2022/01/28 10:10:40;;;;;;;;;24.00;21.33;;;;;;;;6239113;22;45472;-91
2022/01/28 10:13:11;;;;;;;;;32.33;27.00;;;;;;;;6244949;22;47275;-91
2022/01/28 10:15:50;;;;;;;;;28.67;23.33;;;;;;;;6242655;22;45409;-91
2022/01/28 10:18:15;;;;;;;;;25.33;21.67;;;;;;;;6270657;22;45274;-91
2022/01/28 10:20:42;;;;;;;;;28.67;23.00;;;;;;;;6240428;22;45305;-91
2022/01/28 10:23:12;;;;;;;;;26.33;24.00;;;;;;;;6269871;22;46218;-91
2022/01/28 10:25:38;;;;;;;;;27.00;24.00;;;;;;;;6242659;22;45379;-91
2022/01/28 10:28:05;;;;;;;;;26.67;24.00;;;;;;;;6241710;22;45376;-91
2022/01/28 10:30:34;;;;;;;;;33.33;26.00;;;;;;;;6241445;22;45345;-90
2022/01/28 10:33:10;;;;;;;;;28.67;24.33;;;;;;;;6238428;22;47064;-91
2022/01/28 10:35:36;;;;;;;;;34.67;27.00;;;;;;;;6240119;22;45408;-90
2022/01/28 10:38:02;;;;;;;;;29.00;25.67;;;;;;;;6242699;22;45331;-91
2022/01/28 10:40:27;;;;;;;;;27.00;24.33;;;;;;;;6242116;22;45339;-91
2022/01/28 10:42:53;;;;;;;;;25.67;21.00;;;;;;;;6242233;22;47078;-90
2022/01/28 10:45:20;;;;;;;;;30.33;25.00;;;;;;;;6271407;22;45285;-91
2022/01/28 10:47:46;;;;;;;;;25.33;20.00;;;;;;;;6248379;22;45203;-90
2022/01/28 10:50:17;;;;;;;;;33.33;25.33;;;;;;;;6244154;22;45665;-93
2022/01/28 10:52:42;;;;;;;;;26.33;18.67;;;;;;;;6243188;22;47296;-90
2022/01/28 10:55:14;;;;;;;;;32.00;22.33;;;;;;;;6268529;22;45342;-90
2022/01/28 10:57:39;;;;;;;;;35.00;23.33;;;;;;;;6242638;22;45497;-90
2022/01/28 11:00:05;;;;;;;;;28.33;24.00;;;;;;;;6242006;22;45561;-92
2022/01/28 11:02:30;;;;;;;;;27.33;25.33;;;;;;;;6273258;22;45283;-91
2022/01/28 11:04:56;;;;;;;;;26.33;22.33;;;;;;;;6273716;22;45359;-90
2022/01/28 11:07:22;;;;;;;;;26.00;24.33;;;;;;;;6245810;22;45426;-91
2022/01/28 11:09:48;;;;;;;;;28.67;22.33;;;;;;;;6277369;22;45312;-92
2022/01/28 11:12:14;;;;;;;;;32.00;24.00;;;;;;;;6251976;22;47861;-93
2022/01/28 11:14:39;;;;;;;;;25.00;20.00;;;;;;;;6247378;22;45674;-93
2022/01/28 11:17:04;;;;;;;;;24.67;22.33;;;;;;;;6244439;22;45455;-92
2022/01/28 11:19:32;;;;;;;;;27.33;25.00;;;;;;;;6268023;22;45306;-90
2022/01/28 11:22:03;;;;;;;;;23.67;21.00;;;;;;;;6248622;22;47508;-91
2022/01/28 11:24:28;;;;;;;;;27.00;21.00;;;;;;;;6247485;22;45934;-92
2022/01/28 11:26:59;;;;;;;;;29.00;22.33;;;;;;;;6243363;22;45209;-91
2022/01/28 11:29:28;;;;;;;;;25.00;22.33;;;;;;;;6244851;22;45480;-93
2022/01/28 11:31:55;;;;;;;;;30.33;24.67;;;;;;;;6242934;22;48227;-91
2022/01/28 11:34:24;;;;;;;;;20.33;18.00;;;;;;;;6271021;22;45215;-92
2022/01/28 11:36:51;;;;;;;;;24.67;19.67;;;;;;;;6242434;22;45657;-94
2022/01/28 11:39:19;;;;;;;;;27.67;19.67;;;;;;;;6235453;22;45473;-92
2022/01/28 11:42:15;;;;;;;;;22.33;19.33;;;;;;;;6241000;22;47407;-90
2022/01/28 11:44:42;;;;;;;;;21.67;16.00;;;;;;;;6249996;22;45288;-94
2022/01/28 11:47:22;;;;;;;;;22.33;19.00;;;;;;;;6242046;22;45268;-90
2022/01/28 11:50:06;;;;;;;;;22.67;21.00;;;;;;;;6242740;22;45295;-92
2022/01/28 11:52:32;;;;;;;;;24.33;19.67;;;;;;;;6273878;22;46465;-92
2022/01/28 11:55:18;;;;;;;;;21.00;16.50;;;;;;;;6274866;22;45456;-93
2022/01/28 11:57:49;;;;;;;;;24.67;21.67;;;;;;;;6232761;22;45434;-95
2022/01/28 12:00:18;;;;;;;;;25.00;23.33;;;;;;;;6271542;22;45608;-92
2022/01/28 12:02:48;;;;;;;;;27.00;20.67;;;;;;;;6270492;22;47455;-92
2022/01/28 12:05:29;;;;;;;;;32.67;22.33;;;;;;;;6241510;22;45420;-95
2022/01/28 12:07:54;;;;;;;;;26.00;21.67;;;;;;;;6242315;22;45313;-92
2022/01/28 12:10:20;;;;;;;;;24.67;22.33;;;;;;;;6241437;22;45575;-91
2022/01/28 12:12:55;;;;;;;;;19.67;16.00;;;;;;;;6242867;22;46944;-92
2022/01/28 12:15:23;;;;;;;;;15.67;12.33;;;;;;;;6241848;22;45804;-91
2022/01/28 12:17:49;;;;;;;;;13.67;12.00;;;;;;;;6269894;22;45483;-93
2022/01/28 12:20:19;;;;;;;;;26.00;22.33;;;;;;;;6241156;22;45786;-91
2022/01/28 12:23:04;;;;;;;;;24.00;17.00;;;;;;;;6269753;22;46316;-91
2022/01/28 12:25:35;;;;;;;;;23.67;20.67;;;;;;;;6239218;22;45344;-93
2022/01/28 12:28:30;;;;;;;;;22.33;17.33;;;;;;;;6240819;22;45389;-93
2022/01/28 12:31:05;;;;;;;;;16.67;14.00;;;;;;;;6206947;22;45642;-93
2022/01/28 12:33:32;;;;;;;;;20.67;16.33;;;;;;;;6242559;22;47548;-93
2022/01/28 12:36:00;;;;;;;;;21.00;18.33;;;;;;;;6246130;22;45303;-93
2022/01/28 12:38:29;;;;;;;;;21.67;19.00;;;;;;;;6250293;22;45238;-94
2022/01/28 12:40:57;;;;;;;;;18.67;15.00;;;;;;;;6249933;22;45418;-93
2022/01/28 12:43:23;;;;;;;;;23.33;17.00;;;;;;;;6249119;22;47327;-93
2022/01/28 12:45:57;;;;;;;;;18.33;17.33;;;;;;;;6247251;22;45330;-92
2022/01/28 12:48:22;;;;;;;;;23.67;17.67;;;;;;;;6242888;22;45421;-93
2022/01/28 12:50:51;;;;;;;;;24.33;18.00;;;;;;;;6242244;22;45445;-93
2022/01/28 12:53:25;;;;;;;;;18.67;16.67;;;;;;;;6271525;22;45230;-92
2022/01/28 12:55:51;;;;;;;;;16.33;14.33;;;;;;;;6273140;22;45293;-91
2022/01/28 12:58:16;;;;;;;;;22.00;20.00;;;;;;;;6247643;22;45340;-92
2022/01/28 13:00:41;;;;;;;;;25.33;20.33;;;;;;;;6247538;22;45383;-93
2022/01/28 13:03:19;;;;;;;;;24.67;20.67;;;;;;;;6274347;22;45479;-90
2022/01/28 13:05:54;;;;;;;;;16.00;11.00;;;;;;;;6244329;22;45861;-90
2022/01/28 13:08:25;;;;;;;;;18.33;16.67;;;;;;;;6245827;22;45389;-91
2022/01/28 13:10:50;;;;;;;;;23.67;17.67;;;;;;;;6245731;22;45267;-92
2022/01/28 13:13:16;;;;;;;;;23.33;22.33;;;;;;;;6243581;22;45621;-91
2022/01/28 13:15:51;;;;;;;;;23.33;20.00;;;;;;;;6274476;22;45302;-92
2022/01/28 13:18:17;;;;;;;;;15.00;14.00;;;;;;;;6246121;22;45311;-92
2022/01/28 13:20:42;;;;;;;;;21.33;18.00;;;;;;;;6243835;22;45328;-90
2022/01/28 13:23:09;;;;;;;;;23.00;22.00;;;;;;;;6272821;22;46496;-94
2022/01/28 13:25:34;;;;;;;;;19.00;17.00;;;;;;;;6275508;22;45290;-92
2022/01/28 13:28:03;;;;;;;;;24.00;21.00;;;;;;;;6277884;22;45333;-91
2022/01/28 13:30:33;;;;;;;;;22.67;19.67;;;;;;;;6248796;22;45236;-87
2022/01/28 13:33:04;;;;;;;;;28.67;23.33;;;;;;;;6276795;22;45335;-90
2022/01/28 13:35:32;;;;;;;;;20.67;17.00;;;;;;;;6272173;22;45321;-89
2022/01/28 13:38:01;;;;;;;;;22.67;22.67;;;;;;;;6242461;22;45381;-88
2022/01/28 13:40:27;;;;;;;;;25.67;23.00;;;;;;;;6271260;22;45263;-89
2022/01/28 13:43:00;;;;;;;;;20.67;16.00;;;;;;;;6243214;22;46509;-89
2022/01/28 13:45:40;;;;;;;;;26.67;20.67;;;;;;;;6242474;22;45523;-89
2022/01/28 13:48:14;;;;;;;;;29.00;21.33;;;;;;;;6243215;22;45220;-88
2022/01/28 13:50:42;;;;;;;;;20.33;16.00;;;;;;;;6244104;22;45259;-89
2022/01/28 13:56:04;;;;;;;;;23.67;18.00;;;;;;;;6271239;22;45234;-89
2022/01/28 13:58:40;;;;;;;;;18.67;16.00;;;;;;;;6270809;22;45475;-89
2022/01/28 14:01:07;;;;;;;;;18.67;17.67;;;;;;;;6273776;22;45461;-88
2022/01/28 14:03:32;;;;;;;;;20.00;18.00;;;;;;;;6247497;22;48325;-89
2022/01/28 14:05:59;;;;;;;;;20.00;18.00;;;;;;;;6246692;22;45296;-88
2022/01/28 14:08:39;;;;;;;;;26.00;20.33;;;;;;;;6272290;22;45157;-88
2022/01/28 14:11:41;;;;;;;;;17.67;17.67;;;;;;;;6272744;22;45321;-88
2022/01/28 14:14:09;;;;;;;;;23.67;20.00;;;;;;;;6176057;23;45405;-89
2022/01/28 14:16:34;;;;;;;;;23.67;17.00;;;;;;;;6179615;23;45437;-88
2022/01/28 14:19:00;;;;;;;;;26.00;21.33;;;;;;;;6180162;23;45278;-88
2022/01/28 14:21:25;;;;;;;;;29.67;22.00;;;;;;;;6177200;23;45282;-88
2022/01/28 14:23:50;;;;;;;;;22.00;19.00;;;;;;;;6177508;23;46417;-89
2022/01/28 14:26:16;;;;;;;;;22.33;16.33;;;;;;;;6199440;22;45359;-87
2022/01/28 14:31:22;;;;;;;;;21.00;19.00;;;;;;;;6207668;22;45495;-89
2022/01/28 14:33:49;;;;;;;;;24.00;19.00;;;;;;;;6188999;22;46875;-89
2022/01/28 14:36:14;;;;;;;;;21.00;20.33;;;;;;;;6210080;22;45571;-89
2022/01/28 14:38:40;;;;;;;;;20.67;18.33;;;;;;;;6217996;22;45557;-88
2022/01/28 14:41:05;;;;;;;;;24.00;17.67;;;;;;;;6187594;22;44837;-88
2022/01/28 14:43:30;;;;;;;;;24.67;17.00;;;;;;;;6188225;22;47317;-88
2022/01/28 14:45:55;;;;;;;;;22.33;18.33;;;;;;;;6207715;22;45673;-88
2022/01/28 14:48:22;;;;;;;;;24.00;17.67;;;;;;;;6247491;22;45388;-89
2022/01/28 14:50:48;;;;;;;;;20.67;15.00;;;;;;;;6245846;22;45632;-88
2022/01/28 14:53:13;;;;;;;;;21.00;17.33;;;;;;;;6243940;22;47941;-88
2022/01/28 14:55:40;;;;;;;;;18.67;16.33;;;;;;;;6271554;22;45370;-89
2022/01/28 14:58:06;;;;;;;;;25.67;17.67;;;;;;;;6245762;22;45331;-88
2022/01/28 15:00:31;;;;;;;;;24.00;19.67;;;;;;;;6271284;22;45286;-87
2022/01/28 15:02:56;;;;;;;;;20.33;19.00;;;;;;;;6246206;22;47381;-88
2022/01/28 15:05:22;;;;;;;;;21.67;19.33;;;;;;;;6272805;22;45250;-87
2022/01/28 15:07:47;;;;;;;;;17.67;15.33;;;;;;;;6246586;22;45290;-88
2022/01/28 15:10:13;;;;;;;;;19.33;17.00;;;;;;;;6243996;22;45277;-87
2022/01/28 15:12:40;;;;;;;;;28.33;22.67;;;;;;;;6244500;22;46052;-88
2022/01/28 15:15:05;;;;;;;;;23.00;18.67;;;;;;;;6245670;22;45617;-88
2022/01/28 15:17:31;;;;;;;;;21.00;18.00;;;;;;;;6244644;22;45281;-88
2022/01/28 15:19:58;;;;;;;;;20.00;18.67;;;;;;;;6274718;22;45420;-87
2022/01/28 15:22:23;;;;;;;;;24.67;22.00;;;;;;;;6244720;22;46482;-88
2022/01/28 15:24:48;;;;;;;;;21.33;16.67;;;;;;;;6245664;22;45635;-88
2022/01/28 15:27:14;;;;;;;;;17.67;17.33;;;;;;;;6271989;22;45203;-87
2022/01/28 15:37:31;;;;;;;;;23.33;18.33;;;;;;;;6271738;22;45329;-88
2022/01/28 15:39:57;;;;;;;;;25.67;19.67;;;;;;;;6245545;22;45767;-88
2022/01/28 15:42:22;;;;;;;;;21.00;19.33;;;;;;;;6244578;22;47151;-88
2022/01/28 15:44:47;;;;;;;;;19.33;19.33;;;;;;;;6243150;22;45487;-88
2022/01/28 15:47:13;;;;;;;;;21.67;18.00;;;;;;;;6245203;22;45333;-88
2022/01/28 15:49:40;;;;;;;;;18.67;14.00;;;;;;;;6271016;22;45442;-88
2022/01/28 15:52:06;;;;;;;;;18.00;16.67;;;;;;;;6245537;22;48158;-88
2022/01/28 15:54:31;;;;;;;;;21.33;17.67;;;;;;;;6249852;22;45614;-88
2022/01/28 15:56:57;;;;;;;;;24.67;17.67;;;;;;;;6278618;22;45279;-88
2022/01/28 15:59:23;;;;;;;;;25.67;21.33;;;;;;;;6220582;22;45275;-88
2022/01/28 16:01:48;;;;;;;;;20.00;18.67;;;;;;;;6252166;22;47577;-88
2022/01/28 16:04:15;;;;;;;;;20.33;18.67;;;;;;;;6274790;22;45478;-88
2022/01/28 16:06:41;;;;;;;;;25.33;17.67;;;;;;;;6250489;22;45344;-88
2022/01/28 16:09:07;;;;;;;;;20.00;18.67;;;;;;;;6247816;22;45443;-87
2022/01/28 16:11:43;;;;;;;;;17.33;17.33;;;;;;;;6247650;22;47535;-90
2022/01/28 16:14:17;;;;;;;;;16.67;15.33;;;;;;;;6246209;22;45313;-88
2022/01/28 16:19:28;;;;;;;;;22.00;16.67;;;;;;;;6273504;22;45283;-90
2022/01/28 16:21:56;;;;;;;;;18.33;15.33;;;;;;;;6245827;22;47302;-91
2022/01/28 16:24:22;;;;;;;;;25.67;23.67;;;;;;;;6250365;22;45567;-90
2022/01/28 16:26:47;;;;;;;;;24.67;20.67;;;;;;;;6245418;22;45285;-89
2022/01/28 16:29:13;;;;;;;;;22.33;17.33;;;;;;;;6272972;22;45279;-91
2022/01/28 16:31:39;;;;;;;;;19.33;19.00;;;;;;;;6271572;22;45310;-91
2022/01/28 16:34:06;;;;;;;;;16.67;15.00;;;;;;;;6241155;22;45546;-89
2022/01/28 16:36:32;;;;;;;;;21.00;18.00;;;;;;;;6269517;22;45356;-88
2022/01/28 16:38:57;;;;;;;;;18.33;16.33;;;;;;;;6272067;22;45358;-89
2022/01/28 16:41:23;;;;;;;;;19.00;17.33;;;;;;;;6243739;22;46805;-89
2022/01/28 16:44:01;;;;;;;;;20.33;19.00;;;;;;;;6245161;22;45405;-88
2022/01/28 16:46:26;;;;;;;;;25.00;18.00;;;;;;;;6244940;22;45336;-88
2022/01/28 16:48:53;;;;;;;;;27.33;20.67;;;;;;;;6271439;22;45297;-89
2022/01/28 16:51:21;;;;;;;;;25.67;20.00;;;;;;;;6243287;22;47051;-85
2022/01/28 16:53:46;;;;;;;;;29.33;20.00;;;;;;;;6271429;22;45565;-90
2022/01/28 16:56:12;;;;;;;;;21.00;19.67;;;;;;;;6270111;22;45449;-90
2022/01/28 16:58:37;;;;;;;;;30.67;23.33;;;;;;;;6270560;22;45333;-89
2022/01/28 17:01:02;;;;;;;;;22.67;19.67;;;;;;;;6267362;22;46131;-89
2022/01/28 17:03:27;;;;;;;;;32.67;24.33;;;;;;;;6269677;22;45352;-89
2022/01/28 17:05:53;;;;;;;;;26.33;22.00;;;;;;;;6270394;22;45508;-88
2022/01/28 17:08:18;;;;;;;;;27.00;24.67;;;;;;;;6270151;22;45253;-89
2022/01/28 17:10:59;;;;;;;;;23.67;20.67;;;;;;;;6270346;22;46576;-89
2022/01/28 17:13:24;;;;;;;;;22.67;20.00;;;;;;;;6242673;22;45416;-89
2022/01/28 17:15:49;;;;;;;;;23.00;20.00;;;;;;;;6242476;22;45492;-89
2022/01/28 17:18:14;;;;;;;;;26.00;19.00;;;;;;;;6271150;22;45386;-88
2022/01/28 17:20:39;;;;;;;;;34.50;25.25;;;;;;;;6269401;22;46207;-89
2022/01/28 17:23:05;;;;;;;;;37.75;29.75;;;;;;;;6241719;22;46207;-89
2022/01/28 17:25:30;;;;;;;;;72.25;54.75;;;;;;;;6268783;22;45494;-89
2022/01/28 17:27:56;;;;;;;;;34.25;33.25;;;;;;;;6242453;22;45584;-89
2022/01/28 17:30:22;;;;;;;;;39.00;33.25;;;;;;;;6241832;22;48050;-89
2022/01/28 17:32:49;;;;;;;;;47.00;37.00;;;;;;;;6241963;22;45358;-89
2022/01/28 17:35:18;;;;;;;;;31.33;28.33;;;;;;;;6241503;22;45282;-89
2022/01/28 17:37:44;;;;;;;;;23.67;21.67;;;;;;;;6251576;22;45469;-89
2022/01/28 17:40:10;;;;;;;;;35.00;27.33;;;;;;;;6251160;22;46115;-89
2022/01/28 17:42:36;;;;;;;;;38.75;34.00;;;;;;;;6255536;22;45444;-88
2022/01/28 17:45:04;;;;;;;;;26.50;25.25;;;;;;;;6279858;22;45285;-88
2022/01/28 17:47:41;;;;;;;;;42.50;36.00;;;;;;;;6261986;22;45259;-89
2022/01/28 17:50:26;;;;;;;;;56.50;45.75;;;;;;;;6244714;22;45132;-89
2022/01/28 17:52:52;;;;;;;;;53.50;43.25;;;;;;;;6264698;22;44704;-89
2022/01/28 17:55:18;;;;;;;;;56.25;42.50;;;;;;;;6252418;22;45288;-89
2022/01/28 17:57:43;;;;;;;;;52.25;41.00;;;;;;;;6254247;22;45186;-89
2022/01/28 18:00:31;;;;;;;;;71.50;52.75;;;;;;;;6278265;22;45274;-89
2022/01/28 18:02:57;;;;;;;;;69.25;50.75;;;;;;;;6253830;22;45668;-88
2022/01/28 18:05:22;;;;;;;;;51.50;41.25;;;;;;;;6288874;22;45276;-89
2022/01/28 18:07:47;;;;;;;;;64.75;51.75;;;;;;;;6242674;22;45445;-89
2022/01/28 18:10:14;;;;;;;;;66.25;51.00;;;;;;;;6246574;22;47352;-88
2022/01/28 18:12:40;;;;;;;;;54.25;41.50;;;;;;;;6246538;22;45270;-89
2022/01/28 18:15:05;;;;;;;;;57.25;42.25;;;;;;;;6242726;22;45350;-90
2022/01/28 18:17:30;;;;;;;;;56.25;46.25;;;;;;;;6270421;22;45366;-89
2022/01/28 18:19:56;;;;;;;;;56.00;45.75;;;;;;;;6264941;22;46095;-89
2022/01/28 18:22:21;;;;;;;;;50.75;41.25;;;;;;;;6247213;22;45388;-87
2022/01/28 18:24:46;;;;;;;;;45.25;40.25;;;;;;;;6275971;22;45230;-87
2022/01/28 18:27:13;;;;;;;;;57.00;47.00;;;;;;;;6284081;22;45250;-88
2022/01/28 18:29:38;;;;;;;;;62.00;50.00;;;;;;;;6252945;22;46707;-88
2022/01/28 18:32:04;;;;;;;;;47.25;37.00;;;;;;;;6252971;22;45879;-88
2022/01/28 18:34:29;;;;;;;;;53.00;42.25;;;;;;;;6247981;22;45497;-88
2022/01/28 18:36:54;;;;;;;;;39.75;36.75;;;;;;;;6241660;22;45478;-89
2022/01/28 18:39:19;;;;;;;;;42.75;33.50;;;;;;;;6267245;22;46637;-88
2022/01/28 18:41:47;;;;;;;;;42.00;35.75;;;;;;;;6242463;22;45524;-88
2022/01/28 18:44:18;;;;;;;;;56.00;41.25;;;;;;;;6242839;22;45450;-88
2022/01/28 18:46:54;;;;;;;;;46.75;40.50;;;;;;;;6242494;22;45259;-88
2022/01/28 18:49:20;;;;;;;;;42.75;36.00;;;;;;;;6241587;22;48049;-88
2022/01/28 18:51:45;;;;;;;;;40.25;35.25;;;;;;;;6269882;22;45469;-88
2022/01/28 18:54:11;;;;;;;;;34.00;28.00;;;;;;;;6242861;22;45324;-93
2022/01/28 18:56:36;;;;;;;;;22.00;21.00;;;;;;;;6242340;22;45703;-89
2022/01/28 18:59:01;;;;;;;;;29.33;24.33;;;;;;;;6243135;22;48734;-90
2022/01/28 19:01:26;;;;;;;;;28.67;25.00;;;;;;;;6264751;22;45617;-89
2022/01/28 19:03:51;;;;;;;;;26.75;21.75;;;;;;;;6242238;22;45507;-89
2022/01/28 19:06:17;;;;;;;;;20.00;18.33;;;;;;;;6244683;22;45267;-92
2022/01/28 19:08:42;;;;;;;;;27.25;23.25;;;;;;;;6241727;22;48134;-89
2022/01/28 19:11:07;;;;;;;;;22.33;21.00;;;;;;;;6236728;22;45442;-89
2022/01/28 19:13:34;;;;;;;;;23.33;21.67;;;;;;;;6269796;22;45345;-89
2022/01/28 19:16:00;;;;;;;;;29.00;25.67;;;;;;;;6242767;22;45227;-89
2022/01/28 19:18:25;;;;;;;;;22.33;20.00;;;;;;;;6240653;22;47166;-89
2022/01/28 19:20:50;;;;;;;;;23.67;19.00;;;;;;;;6239114;22;45545;-89
2022/01/28 19:23:15;;;;;;;;;24.00;18.00;;;;;;;;6243751;22;45304;-89
2022/01/28 19:25:41;;;;;;;;;30.50;26.25;;;;;;;;6240095;22;45345;-89
2022/01/28 19:28:07;;;;;;;;;22.67;20.00;;;;;;;;6243268;22;48312;-89
2022/01/28 19:30:33;;;;;;;;;23.00;19.67;;;;;;;;6243255;22;45393;-88
2022/01/28 19:32:59;;;;;;;;;17.75;16.75;;;;;;;;6270633;22;45284;-89
2022/01/28 19:35:24;;;;;;;;;25.33;20.67;;;;;;;;6268953;22;45399;-90
2022/01/28 19:37:50;;;;;;;;;16.00;14.00;;;;;;;;6242179;22;48027;-89
2022/01/28 19:40:16;;;;;;;;;15.00;15.00;;;;;;;;6241418;22;45386;-90
2022/01/28 19:42:43;;;;;;;;;24.00;17.00;;;;;;;;6242971;22;45416;-88
2022/01/28 19:45:15;;;;;;;;;23.50;19.75;;;;;;;;6241750;22;45464;-90
2022/01/28 19:47:42;;;;;;;;;32.75;25.50;;;;;;;;6241668;22;48126;-93
2022/01/28 19:50:11;;;;;;;;;22.67;17.00;;;;;;;;6242030;22;45751;-94
2022/01/28 19:52:36;;;;;;;;;25.67;21.33;;;;;;;;6243366;22;45314;-93
2022/01/28 19:55:01;;;;;;;;;15.67;13.67;;;;;;;;6242204;22;45366;-93
2022/01/28 19:57:29;;;;;;;;;15.50;13.00;;;;;;;;6243492;22;47182;-93
2022/01/28 19:59:54;;;;;;;;;17.67;13.67;;;;;;;;6242537;22;45423;-90
2022/01/28 20:02:19;;;;;;;;;22.00;18.00;;;;;;;;6271034;22;45853;-89
2022/01/28 20:04:45;;;;;;;;;23.67;23.00;;;;;;;;6242411;22;45409;-91
2022/01/28 20:07:10;;;;;;;;;17.67;15.33;;;;;;;;6242914;22;47218;-92
2022/01/28 20:09:35;;;;;;;;;25.67;20.00;;;;;;;;6242973;22;45613;-92
2022/01/28 20:12:02;;;;;;;;;18.00;14.00;;;;;;;;6243687;22;45321;-92
2022/01/28 20:14:27;;;;;;;;;22.00;19.33;;;;;;;;6243693;22;45560;-92
2022/01/28 20:16:52;;;;;;;;;25.67;23.67;;;;;;;;6243443;22;47040;-94
2022/01/28 20:19:17;;;;;;;;;24.00;22.00;;;;;;;;6244664;22;45468;-90
2022/01/28 20:21:43;;;;;;;;;17.00;17.00;;;;;;;;6243809;22;45431;-92
2022/01/28 20:24:08;;;;;;;;;24.00;20.00;;;;;;;;6243382;22;45545;-93
2022/01/28 20:26:33;;;;;;;;;14.67;14.67;;;;;;;;6243978;22;46928;-94
2022/01/28 20:28:58;;;;;;;;;25.33;19.67;;;;;;;;6244443;22;45412;-96
2022/01/28 20:43:49;;;;;;;;;22.67;17.67;;;;;;;;6120325;23;45448;-95
2022/01/28 20:46:29;;;;;;;;;26.00;19.33;;;;;;;;6119849;23;45307;-96
2022/01/28 20:49:36;;;;;;;;;;;;;;;;;;;;;
2022/01/28 20:55:28;;;;;;;;;22.33;19.00;;;;;;;;6059928;23;45454;-95
2022/01/28 21:04:55;;;;;;;;;;;;;;;;;;;;;
2022/01/28 21:14:30;;;;;;;;;;;;;;;;;;;;;
2022/01/28 21:20:15;;;;;;;;;29.67;23.67;;;;;;;;5974521;23;45498;-96
2022/01/28 21:29:59;;;;;;;;;;;;;;;;;;;;;
2022/01/28 21:36:15;;;;;;;;;;;;;;;;;;;;;
